Etusivu
METAR-TAF:

METAR-TAF

Lentoasemat :

Constantine, Algeria

Leveyspiiri: 36-17N, Pituuspiiri: 006-37E, korkeus merenpinnasta: 694 m

Tämänhetkinen sää

Tämä raportti tehtiin 12 minuuttia sitten, kello 22.30 UTC
Tuuli 2 kn eri suunnista
Lämpötila 8°C
Kosteus 87%
Ilmanpaine 1029 hPa
Näkyvyys 10 km tai enemmän
ei pilviä alle 1500 m:ssä eikä cumulonimbus-pilviä

METAR: DABC 162230Z VRB02KT CAVOK 08/06 Q1029

Aika: 23:42 (22:42 UTC)

Sääennuste

Tämä raportti tehtiin 5 tuntia ja 42 minuuttia sitten, kello 17.00 UTC
Ennuste voimassa 16. päivästä klo 18 UTC - 17. päivään klo 18 UTC
Tuuli 8 kn luoteesta
Näkyvyys 10 km tai enemmän
ei pilviä alle 1500 m:ssä eikä cumulonimbus-pilviä
Todennäköisyys 30% :
Ajoittain
17. päivästä klo 02 UTC - 17. päivään klo 08 UTC
Tuuli 2 kn eri suunnista
Näkyvyys: 2000 m
Hajonneita pilviä 1000 ft:n korkeudessa
utua

TAF: DABC 161700Z 1618/1718 31008KT CAVOK PROB30 TEMPO 1702/1708 VRB02KT 2000 BR BKN010

Säähavainnot ja -ennusteet yli 4000 lentoasemalta (METAR- ja TAF-raportit).

Käytössä olevat sääasemat on merkitty karttaan keltaisilla ja punaisilla pisteillä.

Aseta hiiri pisteen päälle nähdäksesi sääaseman nimen.

Klikkaa sitten nähdäksesi säähavainnot ja -ennusteet.

Kartan vaihtaminen: klikkaa mustalla rastilla varustettuja vihreitä pisteitä, niin voit zoomata sisään; viivalla varustettua vihreää pistettä, niin voit zoomata ulos tai vihreitä nuolia, niin pääset viereisille kartoille.


METAR-TAF: